createdAt,value
2022-07-26T00:00:35.628Z,42.19
2022-07-26T00:03:02.759Z,42.09
2022-07-26T00:05:31.115Z,42.42
2022-07-26T00:08:11.115Z,42.28
2022-07-26T00:10:39.929Z,41.91
2022-07-26T00:13:07.234Z,42.50
2022-07-26T00:15:34.586Z,42.55
2022-07-26T00:18:01.940Z,42.04
2022-07-26T00:20:29.227Z,42.42
2022-07-26T00:22:56.744Z,42.23
2022-07-26T00:25:23.957Z,42.39
2022-07-26T00:27:51.224Z,42.47
2022-07-26T00:30:18.467Z,42.45
2022-07-26T00:32:45.725Z,42.44
2022-07-26T00:35:13.508Z,42.27
2022-07-26T00:37:40.889Z,42.40
2022-07-26T00:40:08.782Z,42.59
2022-07-26T00:42:36.383Z,42.57
2022-07-26T00:45:05.190Z,42.54
2022-07-26T00:47:32.644Z,42.48
2022-07-26T00:49:59.798Z,42.25
2022-07-26T00:52:27.017Z,42.60
2022-07-26T00:54:56.426Z,42.56
2022-07-26T00:57:23.636Z,42.39
2022-07-26T00:59:51.093Z,42.46
2022-07-26T01:02:18.508Z,42.40
2022-07-26T01:04:45.777Z,42.75
2022-07-26T01:07:15.034Z,42.57
2022-07-26T01:09:43.130Z,42.63
2022-07-26T01:12:10.915Z,42.60
2022-07-26T01:14:38.482Z,42.65
2022-07-26T01:17:05.856Z,42.51
2022-07-26T01:19:33.016Z,42.63
2022-07-26T01:22:00.491Z,42.74
2022-07-26T01:24:27.805Z,42.71
2022-07-26T01:26:56.062Z,42.71
2022-07-26T01:29:24.138Z,42.76
2022-07-26T01:32:04.466Z,42.66
2022-07-26T01:34:31.684Z,42.83
2022-07-26T01:36:58.968Z,42.88
2022-07-26T01:39:26.122Z,42.67
2022-07-26T01:41:53.889Z,42.65
2022-07-26T01:44:20.932Z,42.53
2022-07-26T01:46:48.026Z,42.66
2022-07-26T01:49:15.157Z,42.79
2022-07-26T01:51:42.278Z,42.84
2022-07-26T01:54:09.791Z,42.79
2022-07-26T01:56:37.291Z,42.89
2022-07-26T01:59:04.584Z,42.85
2022-07-26T02:01:38.398Z,42.74
2022-07-26T02:04:08.881Z,42.59
2022-07-26T02:06:37.170Z,42.82
2022-07-26T02:09:06.507Z,42.55
2022-07-26T02:11:34.857Z,42.94
2022-07-26T02:14:02.663Z,42.68
2022-07-26T02:16:29.819Z,42.76
2022-07-26T02:18:56.917Z,42.96
2022-07-26T02:21:23.916Z,42.64
2022-07-26T02:23:51.012Z,42.99
2022-07-26T02:26:18.078Z,43.00
2022-07-26T02:28:45.085Z,42.73
2022-07-26T02:31:15.857Z,42.89
2022-07-26T02:33:43.238Z,42.65
2022-07-26T02:36:10.277Z,42.80
2022-07-26T02:38:37.361Z,42.62
2022-07-26T02:41:06.538Z,43.01
2022-07-26T02:43:33.640Z,42.82
2022-07-26T02:46:01.797Z,42.80
2022-07-26T02:48:32.709Z,43.02
2022-07-26T02:51:00.009Z,43.04
2022-07-26T02:53:27.198Z,43.00
2022-07-26T02:55:54.227Z,43.04
2022-07-26T02:58:21.928Z,43.08
2022-07-26T03:00:50.160Z,42.89
2022-07-26T03:03:17.281Z,43.13
2022-07-26T03:05:44.694Z,42.96
2022-07-26T03:08:11.749Z,42.90
2022-07-26T03:10:40.247Z,43.14
2022-07-26T03:13:07.541Z,43.04
2022-07-26T03:15:34.674Z,43.13
2022-07-26T03:18:02.381Z,43.20
2022-07-26T03:20:29.506Z,43.13
2022-07-26T03:22:56.565Z,43.24
2022-07-26T03:25:23.678Z,43.20
2022-07-26T03:27:50.699Z,43.31
2022-07-26T03:30:24.526Z,43.15
2022-07-26T03:32:54.004Z,43.36
2022-07-26T03:35:21.084Z,43.31
2022-07-26T03:37:48.156Z,42.98
2022-07-26T03:40:18.317Z,43.04
2022-07-26T03:42:46.131Z,43.14
2022-07-26T03:45:14.167Z,43.07
2022-07-26T03:47:41.307Z,43.25
2022-07-26T03:50:11.252Z,43.10
2022-07-26T03:52:38.328Z,43.01
2022-07-26T03:55:26.614Z,43.21
2022-07-26T03:57:53.830Z,43.34
2022-07-26T04:00:20.974Z,43.36
2022-07-26T04:02:48.071Z,43.34
2022-07-26T04:05:15.193Z,43.40
2022-07-26T04:07:52.746Z,43.43
2022-07-26T04:10:21.052Z,43.35
2022-07-26T04:12:48.153Z,43.42
2022-07-26T04:15:19.354Z,43.36
2022-07-26T04:17:48.556Z,43.20
2022-07-26T04:20:16.018Z,43.09
2022-07-26T04:22:43.261Z,43.32
2022-07-26T04:25:10.462Z,43.39
2022-07-26T04:27:38.010Z,43.43
2022-07-26T04:30:09.604Z,43.28
2022-07-26T04:32:39.556Z,43.34
2022-07-26T04:35:06.811Z,43.36
2022-07-26T04:37:39.986Z,43.35
2022-07-26T04:40:07.641Z,43.18
2022-07-26T04:42:34.658Z,43.35
2022-07-26T04:45:07.447Z,43.41
2022-07-26T04:47:35.052Z,43.65
2022-07-26T04:50:02.522Z,43.33
2022-07-26T04:52:29.549Z,43.42
2022-07-26T04:54:56.599Z,43.40
2022-07-26T04:57:23.891Z,43.48
2022-07-26T05:00:09.863Z,43.49
2022-07-26T05:02:38.082Z,43.45
2022-07-26T05:05:06.195Z,43.46
2022-07-26T05:07:43.235Z,43.66
2022-07-26T05:10:10.627Z,43.58
2022-07-26T05:12:37.751Z,43.33
2022-07-26T05:15:05.269Z,43.49
2022-07-26T05:17:32.384Z,43.43
2022-07-26T05:20:03.621Z,43.37
2022-07-26T05:22:30.769Z,43.56
2022-07-26T05:24:57.817Z,43.46
2022-07-26T05:27:24.840Z,43.27
2022-07-26T05:29:51.886Z,43.51
2022-07-26T05:32:18.974Z,43.35
2022-07-26T05:34:46.045Z,43.53
2022-07-26T05:37:13.193Z,43.42
2022-07-26T05:39:40.240Z,43.35
2022-07-26T05:42:07.313Z,43.61
2022-07-26T05:44:34.444Z,43.49
2022-07-26T05:47:01.459Z,43.52
2022-07-26T05:49:28.492Z,43.38
2022-07-26T05:52:08.134Z,43.59
2022-07-26T05:54:35.547Z,43.65
2022-07-26T05:57:02.706Z,43.42
2022-07-26T05:59:29.813Z,43.67
2022-07-26T06:01:56.938Z,43.57
2022-07-26T06:04:27.433Z,43.42
2022-07-26T06:06:55.225Z,43.66
2022-07-26T06:09:25.159Z,43.76
2022-07-26T06:11:52.287Z,43.55
2022-07-26T06:14:20.071Z,43.65
2022-07-26T06:16:47.749Z,43.58
2022-07-26T06:19:14.870Z,43.57
2022-07-26T06:21:42.962Z,43.86
2022-07-26T06:24:10.625Z,43.60
2022-07-26T06:26:37.909Z,43.49
2022-07-26T06:29:04.988Z,43.45
2022-07-26T06:31:32.112Z,43.54
2022-07-26T06:33:59.237Z,43.48
2022-07-26T06:36:30.247Z,43.58
2022-07-26T06:38:58.118Z,43.48
2022-07-26T06:41:25.155Z,43.59
2022-07-26T06:43:52.232Z,43.68
2022-07-26T06:46:21.326Z,43.60
2022-07-26T06:48:53.097Z,43.87
2022-07-26T06:51:24.265Z,43.70
2022-07-26T06:53:51.337Z,43.73
2022-07-26T06:56:18.845Z,43.63
2022-07-26T06:58:46.041Z,43.59
2022-07-26T07:01:13.207Z,43.66
2022-07-26T07:04:00.568Z,43.73
2022-07-26T07:06:27.630Z,43.56
2022-07-26T07:08:54.700Z,43.61
2022-07-26T07:11:22.346Z,43.72
2022-07-26T07:13:49.704Z,43.59
2022-07-26T07:16:16.843Z,43.55
2022-07-26T07:18:44.007Z,43.62
2022-07-26T07:21:11.017Z,43.66
2022-07-26T07:23:38.089Z,43.62
2022-07-26T07:26:05.148Z,43.74
2022-07-26T07:28:34.032Z,43.71
2022-07-26T07:31:01.627Z,43.48
2022-07-26T07:33:36.729Z,43.70
2022-07-26T07:36:17.426Z,43.42
2022-07-26T07:38:48.104Z,43.49
2022-07-26T07:41:15.209Z,43.58
2022-07-26T07:43:42.245Z,43.67
2022-07-26T07:46:10.726Z,43.76
2022-07-26T07:48:41.096Z,43.63
2022-07-26T07:51:15.992Z,43.61
2022-07-26T07:53:43.189Z,43.87
2022-07-26T07:56:23.884Z,43.63
2022-07-26T07:58:52.175Z,43.62
2022-07-26T08:01:19.499Z,43.64
2022-07-26T08:03:50.410Z,43.63
2022-07-26T08:06:17.985Z,43.58
2022-07-26T08:08:45.074Z,43.79
2022-07-26T08:11:16.267Z,43.75
2022-07-26T08:13:47.797Z,43.66
2022-07-26T08:16:15.315Z,43.73
2022-07-26T08:18:56.117Z,43.73
2022-07-26T08:21:23.988Z,44.04
2022-07-26T08:23:53.454Z,43.74
2022-07-26T08:26:20.594Z,43.87
2022-07-26T08:28:48.315Z,43.83
2022-07-26T08:31:16.785Z,43.92
2022-07-26T08:33:46.294Z,43.96
2022-07-26T08:36:15.577Z,43.79
2022-07-26T08:38:43.334Z,43.89
2022-07-26T08:41:10.363Z,43.90
2022-07-26T08:43:45.223Z,43.77
2022-07-26T08:46:27.023Z,43.85
2022-07-26T08:48:58.040Z,44.12
2022-07-26T08:51:25.647Z,43.86
2022-07-26T08:54:04.272Z,43.77
2022-07-26T08:56:34.337Z,44.04
2022-07-26T08:59:06.983Z,43.71
2022-07-26T09:01:34.524Z,43.93
2022-07-26T09:04:30.288Z,43.90
2022-07-26T09:07:03.134Z,43.87
2022-07-26T09:09:30.559Z,43.97
2022-07-26T09:11:57.827Z,44.13
2022-07-26T09:14:38.579Z,43.99
2022-07-26T09:17:06.447Z,43.94
2022-07-26T09:19:34.834Z,43.96
2022-07-26T09:22:10.538Z,44.03
2022-07-26T09:24:47.866Z,44.08
2022-07-26T09:27:16.669Z,44.11
2022-07-26T09:29:44.504Z,44.04
2022-07-26T09:32:17.271Z,44.09
2022-07-26T09:34:58.332Z,43.77
2022-07-26T09:37:39.805Z,44.04
2022-07-26T09:40:08.657Z,43.85
2022-07-26T09:42:35.794Z,44.09
2022-07-26T09:45:02.930Z,43.96
2022-07-26T09:47:39.335Z,44.15
2022-07-26T09:50:13.783Z,44.05
2022-07-26T09:52:41.141Z,43.91
2022-07-26T09:55:09.341Z,43.99
2022-07-26T09:57:36.490Z,44.12
2022-07-26T10:00:05.997Z,44.11
2022-07-26T10:02:35.140Z,44.08
2022-07-26T10:05:02.320Z,44.04
2022-07-26T10:07:29.339Z,44.15
2022-07-26T10:10:04.826Z,44.09
2022-07-26T10:12:32.784Z,44.13
2022-07-26T10:14:59.972Z,44.05
2022-07-26T10:17:31.758Z,44.22
2022-07-26T10:20:09.221Z,44.05
2022-07-26T10:22:45.551Z,44.05
2022-07-26T10:25:18.658Z,44.17
2022-07-26T10:27:46.505Z,44.12
2022-07-26T10:30:16.533Z,44.31
2022-07-26T10:32:52.820Z,44.13
2022-07-26T10:35:36.510Z,44.19
2022-07-26T10:38:04.557Z,44.15
2022-07-26T10:40:31.653Z,44.02
2022-07-26T10:43:38.921Z,44.18
2022-07-26T10:46:18.207Z,44.25
2022-07-26T10:48:57.727Z,44.32
2022-07-26T10:51:29.753Z,44.21
2022-07-26T10:54:03.918Z,44.31
2022-07-26T10:56:33.396Z,44.31
2022-07-26T10:59:01.447Z,44.36
2022-07-26T11:01:41.155Z,44.21
2022-07-26T11:04:23.958Z,44.34
2022-07-26T11:06:50.957Z,44.38
2022-07-26T11:09:21.228Z,44.42
2022-07-26T11:11:48.920Z,44.44
2022-07-26T11:14:17.523Z,44.23
2022-07-26T11:16:46.821Z,44.20
2022-07-26T11:19:21.282Z,44.38
2022-07-26T11:21:54.704Z,44.28
2022-07-26T11:24:22.363Z,44.50
2022-07-26T11:26:49.470Z,44.22
2022-07-26T11:29:17.053Z,44.33
2022-07-26T11:31:51.207Z,44.39
2022-07-26T11:34:26.225Z,44.41
2022-07-26T11:36:56.336Z,44.36
2022-07-26T11:39:33.113Z,44.37
2022-07-26T11:42:11.909Z,44.37
2022-07-26T11:44:39.103Z,44.44
2022-07-26T11:47:14.301Z,44.39
2022-07-26T11:50:01.006Z,44.32
2022-07-26T11:52:32.339Z,44.41
2022-07-26T11:54:59.687Z,44.36
2022-07-26T11:57:30.781Z,44.55
2022-07-26T11:59:58.222Z,44.27
2022-07-26T12:02:25.267Z,44.38
2022-07-26T12:05:13.280Z,44.36
2022-07-26T12:07:40.485Z,44.67
2022-07-26T12:10:07.986Z,44.45
2022-07-26T12:12:35.669Z,44.42
2022-07-26T12:15:04.741Z,44.51
2022-07-26T12:17:35.188Z,44.38
2022-07-26T12:20:13.328Z,44.46
2022-07-26T12:22:40.402Z,44.40
2022-07-26T12:25:08.372Z,44.58
2022-07-26T12:27:35.396Z,44.43
2022-07-26T12:30:02.621Z,44.64
2022-07-26T12:32:37.018Z,44.54
2022-07-26T12:35:14.089Z,44.42
2022-07-26T12:37:47.148Z,44.52
2022-07-26T12:40:21.507Z,44.69
2022-07-26T12:42:58.640Z,44.39
2022-07-26T12:45:32.149Z,44.46
2022-07-26T12:48:00.696Z,44.36
2022-07-26T12:50:28.666Z,44.50
2022-07-26T12:53:06.340Z,44.48
2022-07-26T12:55:33.518Z,44.53
2022-07-26T12:58:01.002Z,44.45
2022-07-26T13:00:29.627Z,44.27
2022-07-26T13:02:57.161Z,44.53
2022-07-26T13:05:24.299Z,44.53
2022-07-26T13:07:54.553Z,44.42
2022-07-26T13:10:32.941Z,44.51
2022-07-26T13:13:00.496Z,44.52
2022-07-26T13:15:35.214Z,44.52
2022-07-26T13:18:05.860Z,44.46
2022-07-26T13:20:32.917Z,44.20
2022-07-26T13:22:59.970Z,44.38
2022-07-26T13:25:30.019Z,44.44
2022-07-26T13:28:05.902Z,46.60
2022-07-26T13:30:33.065Z,47.23
2022-07-26T13:33:00.141Z,46.79
2022-07-26T13:35:27.196Z,46.35
2022-07-26T13:37:54.225Z,46.51
2022-07-26T13:40:21.828Z,46.42
2022-07-26T13:42:50.338Z,46.29
2022-07-26T13:45:17.393Z,46.35
2022-07-26T13:47:44.466Z,46.13
2022-07-26T13:50:11.491Z,45.99
2022-07-26T13:52:38.725Z,45.88
2022-07-26T13:55:06.764Z,45.95
2022-07-26T13:57:47.190Z,45.78
2022-07-26T14:00:21.111Z,45.81
2022-07-26T14:02:48.327Z,45.81
2022-07-26T14:05:15.795Z,45.72
2022-07-26T14:07:43.774Z,45.77
2022-07-26T14:10:10.981Z,45.84
2022-07-26T14:12:38.546Z,45.75
2022-07-26T14:15:11.505Z,45.53
2022-07-26T14:17:40.169Z,45.68
2022-07-26T14:20:07.641Z,45.62
2022-07-26T14:22:34.656Z,45.66
2022-07-26T14:25:01.714Z,45.27
2022-07-26T14:27:28.861Z,45.58
2022-07-26T14:29:55.913Z,45.85
2022-07-26T14:32:23.001Z,45.51
2022-07-26T14:34:51.273Z,45.72
2022-07-26T14:37:40.713Z,45.63
2022-07-26T14:40:07.472Z,45.44
2022-07-26T14:42:34.530Z,45.51
2022-07-26T14:45:01.595Z,45.55
2022-07-26T14:47:28.641Z,45.56
2022-07-26T14:49:55.706Z,45.57
2022-07-26T14:52:22.721Z,45.61
2022-07-26T14:54:49.760Z,45.58
2022-07-26T14:57:16.842Z,45.58
2022-07-26T14:59:43.910Z,45.43
2022-07-26T15:02:11.013Z,45.58
2022-07-26T15:04:38.171Z,45.35
2022-07-26T15:07:05.242Z,45.35
2022-07-26T15:09:32.328Z,45.41
2022-07-26T15:11:59.639Z,45.41
2022-07-26T15:14:26.691Z,45.27
2022-07-26T15:16:53.799Z,45.31
2022-07-26T15:19:25.350Z,45.35
2022-07-26T15:21:54.083Z,45.35
2022-07-26T15:24:21.215Z,45.32
2022-07-26T15:26:50.710Z,45.35
2022-07-26T15:29:17.778Z,45.32
2022-07-26T15:31:45.030Z,45.20
2022-07-26T15:34:12.572Z,45.32
2022-07-26T15:36:39.816Z,45.35
2022-07-26T15:39:16.683Z,45.18
2022-07-26T15:41:45.587Z,45.40
2022-07-26T15:44:16.953Z,45.33
2022-07-26T15:46:46.177Z,45.39
2022-07-26T15:49:15.651Z,45.29
2022-07-26T15:51:43.041Z,45.25
2022-07-26T15:54:11.166Z,45.26
2022-07-26T15:56:38.555Z,45.35
2022-07-26T15:59:08.687Z,45.29
2022-07-26T16:01:36.646Z,45.04
2022-07-26T16:04:05.360Z,45.31
2022-07-26T16:06:35.225Z,45.32
2022-07-26T16:09:19.484Z,45.41
2022-07-26T16:11:47.339Z,45.34
2022-07-26T16:14:15.832Z,45.26
2022-07-26T16:16:43.019Z,45.34
2022-07-26T16:19:11.118Z,45.30
2022-07-26T16:21:38.660Z,45.44
2022-07-26T16:24:07.382Z,45.30
2022-07-26T16:26:35.376Z,45.28
2022-07-26T16:29:02.598Z,45.41
2022-07-26T16:31:30.161Z,45.36
2022-07-26T16:33:57.248Z,45.42
2022-07-26T16:36:24.294Z,45.44
2022-07-26T16:38:51.335Z,45.25
2022-07-26T16:41:18.418Z,45.32
2022-07-26T16:43:45.574Z,45.23
2022-07-26T16:46:12.715Z,45.28
2022-07-26T16:48:39.854Z,45.30
2022-07-26T16:51:07.036Z,45.30
2022-07-26T16:53:34.130Z,45.19
2022-07-26T16:56:01.187Z,45.22
2022-07-26T16:58:28.217Z,45.23
2022-07-26T17:00:55.461Z,45.22
2022-07-26T17:03:23.879Z,45.33
2022-07-26T17:05:51.049Z,45.13
2022-07-26T17:08:18.209Z,45.26
2022-07-26T17:10:45.317Z,45.29
2022-07-26T17:13:12.334Z,45.22
2022-07-26T17:15:39.448Z,45.03
2022-07-26T17:18:06.495Z,45.04
2022-07-26T17:20:33.579Z,45.18
2022-07-26T17:23:00.621Z,45.24
2022-07-26T17:25:27.707Z,45.33
2022-07-26T17:27:54.805Z,45.24
2022-07-26T17:30:21.861Z,45.18
2022-07-26T17:32:49.020Z,45.29
2022-07-26T17:35:16.198Z,45.30
2022-07-26T17:37:43.292Z,45.21
2022-07-26T17:40:10.702Z,45.16
2022-07-26T17:42:38.286Z,45.29
2022-07-26T17:45:06.031Z,45.29
2022-07-26T17:47:33.158Z,45.20
2022-07-26T17:52:49.058Z,45.27
2022-07-26T17:55:16.224Z,45.19
2022-07-26T17:57:43.309Z,45.28
2022-07-26T18:00:10.785Z,45.21
2022-07-26T18:02:37.966Z,45.22
2022-07-26T18:05:05.321Z,45.26
2022-07-26T18:07:32.471Z,45.26
2022-07-26T18:09:59.530Z,45.23
2022-07-26T18:12:26.597Z,45.26
2022-07-26T18:14:53.619Z,45.22
2022-07-26T18:17:20.667Z,45.22
2022-07-26T18:19:47.768Z,45.24
2022-07-26T18:22:14.859Z,45.35
2022-07-26T18:24:42.010Z,45.25
2022-07-26T18:27:09.704Z,45.21
2022-07-26T18:29:37.208Z,45.09
2022-07-26T18:32:04.391Z,45.20
2022-07-26T18:34:31.444Z,45.16
2022-07-26T18:36:58.514Z,45.01
2022-07-26T18:39:25.498Z,44.98
2022-07-26T18:41:59.948Z,45.17
2022-07-26T18:44:27.069Z,45.37
2022-07-26T18:46:56.494Z,45.63
2022-07-26T18:49:25.764Z,46.02
2022-07-26T18:52:04.290Z,46.11
2022-07-26T18:54:35.876Z,46.22
2022-07-26T18:57:03.039Z,46.22
2022-07-26T18:59:31.363Z,46.42
2022-07-26T19:02:00.202Z,46.18
2022-07-26T19:04:27.550Z,46.15
2022-07-26T19:06:55.030Z,46.09
2022-07-26T19:09:22.084Z,46.03
2022-07-26T19:11:49.137Z,46.15
2022-07-26T19:14:16.222Z,46.07
2022-07-26T19:16:43.247Z,45.99
2022-07-26T19:19:10.608Z,45.81
2022-07-26T19:21:38.404Z,45.70
2022-07-26T19:24:05.960Z,45.84
2022-07-26T19:26:33.030Z,45.84
2022-07-26T19:29:00.098Z,46.07
2022-07-26T19:31:27.165Z,45.82
2022-07-26T19:33:54.289Z,45.76
2022-07-26T19:36:26.457Z,45.94
2022-07-26T19:38:55.966Z,45.95
2022-07-26T19:41:23.015Z,45.94
2022-07-26T19:43:50.067Z,45.88
2022-07-26T19:46:17.262Z,45.72
2022-07-26T19:48:44.435Z,45.76
2022-07-26T19:51:11.583Z,45.67
2022-07-26T19:53:38.597Z,45.58
2022-07-26T19:56:06.709Z,45.61
2022-07-26T19:58:33.874Z,45.84
2022-07-26T20:01:01.074Z,45.72
2022-07-26T20:03:28.233Z,45.84
2022-07-26T20:05:57.032Z,45.83
2022-07-26T20:08:24.744Z,45.76
2022-07-26T20:10:51.780Z,45.91
2022-07-26T20:13:19.142Z,45.68
2022-07-26T20:15:47.609Z,45.94
2022-07-26T20:18:14.592Z,45.89
2022-07-26T20:20:42.764Z,45.91
2022-07-26T20:23:11.236Z,45.95
2022-07-26T20:25:38.297Z,45.91
2022-07-26T20:28:05.647Z,45.88
2022-07-26T20:30:32.899Z,46.04
2022-07-26T20:32:59.998Z,45.99
2022-07-26T20:35:27.077Z,45.82
2022-07-26T20:37:54.123Z,45.99
2022-07-26T20:40:21.481Z,45.96
2022-07-26T20:42:50.303Z,46.02
2022-07-26T20:45:18.022Z,46.15
2022-07-26T20:47:45.067Z,46.00
2022-07-26T20:50:12.683Z,46.18
2022-07-26T20:52:39.901Z,46.13
2022-07-26T20:55:07.669Z,46.23
2022-07-26T20:57:34.774Z,46.14
2022-07-26T21:00:01.831Z,46.26
2022-07-26T21:02:29.016Z,46.07
2022-07-26T21:04:56.134Z,46.09
2022-07-26T21:07:24.507Z,46.05
2022-07-26T21:10:11.565Z,46.17
2022-07-26T21:12:38.622Z,46.10
2022-07-26T21:15:06.327Z,46.14
2022-07-26T21:17:34.812Z,46.17
2022-07-26T21:20:03.144Z,46.55
2022-07-26T21:22:30.226Z,46.32
2022-07-26T21:24:57.279Z,46.36
2022-07-26T21:27:24.283Z,46.44
2022-07-26T21:29:51.402Z,46.42
2022-07-26T21:32:18.445Z,46.55
2022-07-26T21:34:45.574Z,46.40
2022-07-26T21:37:12.602Z,46.45
2022-07-26T21:39:39.638Z,46.33
2022-07-26T21:42:06.732Z,46.33
2022-07-26T21:44:33.806Z,46.34
2022-07-26T21:47:00.848Z,46.44
2022-07-26T21:49:27.993Z,46.33
2022-07-26T21:51:55.140Z,46.27
2022-07-26T21:54:22.176Z,46.29
2022-07-26T21:56:49.272Z,46.32
2022-07-26T21:59:16.390Z,46.27
2022-07-26T22:01:43.531Z,46.42
2022-07-26T22:04:18.546Z,46.53
2022-07-26T22:06:45.626Z,46.58
2022-07-26T22:09:13.896Z,46.75
2022-07-26T22:11:43.223Z,46.48
2022-07-26T22:14:12.510Z,46.62
2022-07-26T22:16:40.992Z,46.73
2022-07-26T22:19:08.315Z,46.70
2022-07-26T22:21:35.684Z,46.62
2022-07-26T22:24:02.760Z,46.67
2022-07-26T22:26:31.410Z,46.64
2022-07-26T22:28:59.139Z,46.50
2022-07-26T22:31:26.452Z,46.40
2022-07-26T22:33:53.643Z,46.69
2022-07-26T22:36:20.810Z,46.67
2022-07-26T22:38:47.888Z,46.65
2022-07-26T22:41:15.309Z,46.73
2022-07-26T22:43:42.373Z,46.57
2022-07-26T22:46:09.555Z,46.78
2022-07-26T22:48:38.496Z,46.82
2022-07-26T22:51:06.065Z,46.70
2022-07-26T22:53:33.094Z,46.89
2022-07-26T22:56:00.187Z,46.63
2022-07-26T22:58:27.224Z,46.67
2022-07-26T23:00:54.569Z,46.72
2022-07-26T23:03:22.159Z,46.76
2022-07-26T23:05:50.112Z,46.70
2022-07-26T23:11:05.208Z,46.59
2022-07-26T23:13:32.531Z,46.50
2022-07-26T23:16:01.167Z,46.70
2022-07-26T23:18:29.238Z,46.91
2022-07-26T23:20:56.299Z,46.48
2022-07-26T23:23:23.255Z,46.86
2022-07-26T23:25:54.939Z,46.67
2022-07-26T23:28:36.029Z,46.77
2022-07-26T23:31:11.878Z,46.79
2022-07-26T23:33:52.931Z,46.73
2022-07-26T23:36:28.201Z,46.92
2022-07-26T23:38:58.699Z,46.98
2022-07-26T23:41:26.157Z,46.93
2022-07-26T23:43:54.370Z,46.67
2022-07-26T23:46:21.633Z,46.81
2022-07-26T23:48:48.808Z,46.60
2022-07-26T23:51:15.938Z,46.83
2022-07-26T23:53:43.121Z,46.70
2022-07-26T23:56:10.189Z,46.77
2022-07-26T23:58:37.868Z,46.83
